Time,TemperatureF,DewpointF,PressureIn,WindDirection,WindDirectionDegrees,WindSpeedMPH,WindSpeedGustMPH,Humidity,HourlyPrecipIn,Conditions,Clouds,dailyrainin,SoftwareType,DateUTC
2013-07-12 00:00:00,70.4,69.2,29.84,ENE,76,0.0,2.0,96,0.09,,---,0.19,VWS V14.01,2013-07-12 04:00:00,
2013-07-12 00:01:00,70.4,69.2,29.84,NE,36,0.0,2.0,96,0.09,,---,0.19,VWS V14.01,2013-07-12 04:01:00,
2013-07-12 00:06:00,70.3,69.1,29.85,NNE,23,0.0,0.0,96,0.05,,---,0.01,VWS V14.01,2013-07-12 04:06:00,
2013-07-12 00:11:00,70.3,69.1,29.84,ENE,69,2.0,2.0,96,0.05,,---,0.01,VWS V14.01,2013-07-12 04:11:00,
2013-07-12 00:16:00,70.2,69.0,29.85,East,82,0.0,4.0,96,0.05,,---,0.01,VWS V14.01,2013-07-12 04:16:00,
2013-07-12 00:21:00,70.1,68.9,29.85,East,82,0.0,4.0,96,0.05,,---,0.01,VWS V14.01,2013-07-12 04:21:00,
2013-07-12 00:26:00,70.0,68.8,29.85,East,82,0.0,4.0,96,0.05,,---,0.01,VWS V14.01,2013-07-12 04:26:00,
2013-07-12 00:31:00,69.9,68.7,29.85,East,82,0.0,4.0,96,0.05,,---,0.01,VWS V14.01,2013-07-12 04:31:00,
2013-07-12 00:36:00,69.9,68.7,29.85,East,82,0.0,0.0,96,0.02,,---,0.01,VWS V14.01,2013-07-12 04:36:00,
2013-07-12 00:41:00,69.9,68.7,29.85,East,82,0.0,0.0,96,0.02,,---,0.01,VWS V14.01,2013-07-12 04:41:00,
2013-07-12 00:46:00,70.0,68.8,29.85,ESE,102,0.0,1.0,96,0.02,,---,0.01,VWS V14.01,2013-07-12 04:46:00,
2013-07-12 00:51:00,70.1,68.9,29.85,ESE,109,0.0,1.0,96,0.02,,---,0.01,VWS V14.01,2013-07-12 04:51:00,
2013-07-12 00:57:00,70.0,68.8,29.85,ESE,109,0.0,1.0,96,0.02,,---,0.01,VWS V14.01,2013-07-12 04:57:00,
2013-07-12 01:02:00,70.1,68.9,29.85,ESE,109,0.0,1.0,96,0.02,,---,0.01,VWS V14.01,2013-07-12 05:02:00,
2013-07-12 01:07:00,70.1,68.9,29.84,ESE,108,0.0,0.0,96,0.01,,---,0.01,VWS V14.01,2013-07-12 05:07:00,
2013-07-12 01:12:00,70.0,68.8,29.85,NNW,340,0.0,1.0,96,0.01,,---,0.01,VWS V14.01,2013-07-12 05:12:00,
2013-07-12 01:16:00,70.0,68.8,29.84,NNW,340,0.0,1.0,96,0.01,,---,0.01,VWS V14.01,2013-07-12 05:16:00,
2013-07-12 01:22:00,69.8,68.6,29.84,NW,304,2.0,3.0,96,0.01,,---,0.01,VWS V14.01,2013-07-12 05:22:00,
2013-07-12 01:27:00,69.6,68.4,29.84,NW,304,0.0,3.0,96,0.01,,---,0.01,VWS V14.01,2013-07-12 05:27:00,
2013-07-12 01:31:00,69.4,68.2,29.84,NNW,332,1.0,3.0,96,0.01,,---,0.01,VWS V14.01,2013-07-12 05:31:00,
2013-07-12 01:37:00,69.2,68.0,29.84,NNW,331,3.0,6.0,96,0.00,,---,0.01,VWS V14.01,2013-07-12 05:37:00,
2013-07-12 01:42:00,68.7,67.2,29.84,NW,318,1.0,6.0,95,0.00,,---,0.01,VWS V14.01,2013-07-12 05:42:00,
2013-07-12 01:46:00,68.2,66.7,29.84,NNW,333,1.0,6.0,95,0.00,,---,0.01,VWS V14.01,2013-07-12 05:46:00,
2013-07-12 01:51:00,67.9,66.4,29.84,NNW,340,0.0,6.0,95,0.00,,---,0.01,VWS V14.01,2013-07-12 05:51:00,
2013-07-12 01:56:00,67.6,66.1,29.83,North,9,0.0,6.0,95,0.00,,---,0.01,VWS V14.01,2013-07-12 05:56:00,
2013-07-12 02:01:00,67.5,66.0,29.84,North,350,1.0,6.0,95,0.00,,---,0.01,VWS V14.01,2013-07-12 06:01:00,
2013-07-12 02:06:00,67.3,65.8,29.83,NW,307,4.0,4.0,95,0.00,,---,0.01,VWS V14.01,2013-07-12 06:06:00,
2013-07-12 02:11:00,67.3,65.8,29.84,NW,309,0.0,5.0,95,0.00,,---,0.01,VWS V14.01,2013-07-12 06:11:00,
2013-07-12 02:16:00,67.2,65.7,29.83,WNW,294,0.0,5.0,95,0.00,,---,0.01,VWS V14.01,2013-07-12 06:16:00,
2013-07-12 02:21:00,67.2,66.0,29.83,West,268,0.0,5.0,96,0.00,,---,0.01,VWS V14.01,2013-07-12 06:21:00,
2013-07-12 02:26:00,67.2,66.0,29.83,West,262,1.0,5.0,96,0.00,,---,0.01,VWS V14.01,2013-07-12 06:26:00,
2013-07-12 02:31:00,67.3,66.1,29.83,West,279,0.0,5.0,96,0.00,,---,0.01,VWS V14.01,2013-07-12 06:31:00,
2013-07-12 02:36:00,67.2,66.0,29.83,North,350,2.0,3.0,96,0.00,,---,0.01,VWS V14.01,2013-07-12 06:36:00,
2013-07-12 02:41:00,67.2,65.7,29.83,North,350,0.0,4.0,95,0.00,,---,0.01,VWS V14.01,2013-07-12 06:41:00,
2013-07-12 02:47:00,67.1,65.6,29.83,ENE,67,0.0,4.0,95,0.00,,---,0.01,VWS V14.01,2013-07-12 06:47:00,
2013-07-12 02:51:00,67.0,65.8,29.83,ENE,67,0.0,4.0,96,0.00,,---,0.01,VWS V14.01,2013-07-12 06:51:00,
2013-07-12 02:56:00,67.1,65.9,29.83,ENE,67,0.0,4.0,96,0.00,,---,0.01,VWS V14.01,2013-07-12 06:56:00,
2013-07-12 03:01:00,67.0,65.8,29.83,ENE,67,0.0,4.0,96,0.00,,---,0.01,VWS V14.01,2013-07-12 07:01:00,
2013-07-12 03:06:00,67.0,65.8,29.84,NE,54,0.0,2.0,96,0.00,,---,0.01,VWS V14.01,2013-07-12 07:06:00,
2013-07-12 03:11:00,67.0,65.8,29.84,NE,54,0.0,2.0,96,0.00,,---,0.01,VWS V14.01,2013-07-12 07:11:00,
2013-07-12 03:16:00,67.0,65.8,29.84,NW,312,1.0,2.0,96,0.00,,---,0.01,VWS V14.01,2013-07-12 07:16:00,
2013-07-12 03:21:00,66.9,65.7,29.83,NNW,336,0.0,4.0,96,0.00,,---,0.01,VWS V14.01,2013-07-12 07:21:00,
2013-07-12 03:26:00,66.9,65.7,29.83,North,354,0.0,4.0,96,0.00,,---,0.01,VWS V14.01,2013-07-12 07:26:00,
2013-07-12 03:31:00,66.9,65.7,29.83,WNW,287,1.0,4.0,96,0.00,,---,0.01,VWS V14.01,2013-07-12 07:31:00,
2013-07-12 03:36:00,66.9,65.7,29.84,WNW,288,1.0,3.0,96,0.00,,---,0.01,VWS V14.01,2013-07-12 07:36:00,
2013-07-12 03:41:00,66.9,65.7,29.84,NW,320,0.0,3.0,96,0.00,,---,0.01,VWS V14.01,2013-07-12 07:41:00,
2013-07-12 03:46:00,66.9,65.7,29.83,NNW,329,0.0,3.0,96,0.00,,---,0.01,VWS V14.01,2013-07-12 07:46:00,
2013-07-12 03:51:00,66.9,65.7,29.83,NNW,340,0.0,3.0,96,0.00,,---,0.01,VWS V14.01,2013-07-12 07:51:00,
2013-07-12 03:56:00,66.8,65.6,29.83,NW,304,0.0,3.0,96,0.00,,---,0.01,VWS V14.01,2013-07-12 07:56:00,
2013-07-12 04:01:00,66.8,65.6,29.83,NW,305,0.0,3.0,96,0.00,,---,0.01,VWS V14.01,2013-07-12 08:01:00,
2013-07-12 04:06:00,66.9,65.7,29.83,NW,310,0.0,2.0,96,0.00,,---,0.01,VWS V14.01,2013-07-12 08:06:00,
2013-07-12 04:11:00,66.9,65.7,29.83,NW,326,1.0,2.0,96,0.00,,---,0.01,VWS V14.01,2013-07-12 08:11:00,
2013-07-12 04:16:00,67.0,65.8,29.83,NW,304,1.0,3.0,96,0.00,,---,0.01,VWS V14.01,2013-07-12 08:16:00,
2013-07-12 04:21:00,67.0,65.8,29.83,NW,304,0.0,3.0,96,0.00,,---,0.01,VWS V14.01,2013-07-12 08:21:00,
2013-07-12 04:26:00,67.0,65.8,29.83,North,350,0.0,3.0,96,0.00,,---,0.01,VWS V14.01,2013-07-12 08:26:00,
2013-07-12 04:31:00,67.0,65.8,29.83,WNW,287,3.0,3.0,96,0.00,,---,0.01,VWS V14.01,2013-07-12 08:31:00,
2013-07-12 04:36:00,67.1,65.9,29.84,NNW,327,2.0,3.0,96,0.00,,---,0.01,VWS V14.01,2013-07-12 08:36:00,
2013-07-12 04:41:00,67.2,66.0,29.84,NW,304,1.0,3.0,96,0.00,,---,0.01,VWS V14.01,2013-07-12 08:41:00,
2013-07-12 04:46:00,67.3,66.4,29.84,NW,321,0.0,3.0,97,0.00,,---,0.01,VWS V14.01,2013-07-12 08:46:00,
2013-07-12 04:51:00,67.4,66.2,29.84,NW,314,0.0,4.0,96,0.00,,---,0.01,VWS V14.01,2013-07-12 08:51:00,
2013-07-12 04:56:00,67.5,66.3,29.84,NW,316,0.0,4.0,96,0.00,,---,0.01,VWS V14.01,2013-07-12 08:56:00,
2013-07-12 05:01:00,67.6,66.4,29.84,NNW,334,0.0,4.0,96,0.00,,---,0.01,VWS V14.01,2013-07-12 09:01:00,
2013-07-12 05:06:00,67.6,66.7,29.84,WNW,292,1.0,3.0,97,0.00,,---,0.01,VWS V14.01,2013-07-12 09:06:00,
2013-07-12 05:11:00,67.6,66.4,29.84,NW,307,2.0,4.0,96,0.00,,---,0.01,VWS V14.01,2013-07-12 09:11:00,
2013-07-12 05:16:00,67.7,66.5,29.85,NNW,340,2.0,6.0,96,0.00,,---,0.01,VWS V14.01,2013-07-12 09:16:00,
2013-07-12 05:21:00,67.7,66.5,29.85,WNW,302,2.0,6.0,96,0.00,,---,0.01,VWS V14.01,2013-07-12 09:21:00,
2013-07-12 05:26:00,67.6,66.4,29.85,WNW,290,1.0,6.0,96,0.00,,---,0.01,VWS V14.01,2013-07-12 09:26:00,
2013-07-12 05:31:00,67.6,66.4,29.86,NNW,327,1.0,6.0,96,0.00,,---,0.01,VWS V14.01,2013-07-12 09:31:00,
2013-07-12 05:36:00,67.6,66.4,29.86,NNW,334,0.0,4.0,96,0.00,,---,0.01,VWS V14.01,2013-07-12 09:36:00,
2013-07-12 05:41:00,67.6,66.4,29.86,West,280,2.0,4.0,96,0.00,,---,0.01,VWS V14.01,2013-07-12 09:41:00,
2013-07-12 05:46:00,67.6,66.4,29.87,NNE,13,1.0,6.0,96,0.00,,---,0.01,VWS V14.01,2013-07-12 09:46:00,
2013-07-12 05:51:00,67.6,66.4,29.87,NNW,333,2.0,6.0,96,0.00,,---,0.01,VWS V14.01,2013-07-12 09:51:00,
2013-07-12 05:56:00,67.5,66.3,29.87,NW,320,0.0,6.0,96,0.00,,---,0.01,VWS V14.01,2013-07-12 09:56:00,
2013-07-12 06:01:00,67.5,66.3,29.88,North,1,1.0,6.0,96,0.00,,---,0.01,VWS V14.01,2013-07-12 10:01:00,
2013-07-12 06:06:00,67.4,65.9,29.88,North,350,0.0,5.0,95,0.00,,---,0.01,VWS V14.01,2013-07-12 10:06:00,
2013-07-12 06:11:00,67.4,65.9,29.88,WNW,297,1.0,5.0,95,0.00,,---,0.01,VWS V14.01,2013-07-12 10:11:00,
2013-07-12 06:16:00,67.3,65.8,29.88,NW,312,2.0,5.0,95,0.00,,---,0.01,VWS V14.01,2013-07-12 10:16:00,
2013-07-12 06:21:00,67.2,65.7,29.88,North,350,1.0,5.0,95,0.00,,---,0.01,VWS V14.01,2013-07-12 10:21:00,
2013-07-12 06:26:00,67.1,65.6,29.88,NNE,15,1.0,5.0,95,0.00,,---,0.01,VWS V14.01,2013-07-12 10:26:00,
2013-07-12 06:31:00,67.1,65.6,29.88,NNW,332,0.0,5.0,95,0.00,,---,0.01,VWS V14.01,2013-07-12 10:31:00,
2013-07-12 06:36:00,67.0,65.5,29.88,NW,316,0.0,1.0,95,0.00,,---,0.01,VWS V14.01,2013-07-12 10:36:00,
2013-07-12 06:41:00,67.0,65.5,29.88,NW,316,0.0,1.0,95,0.00,,---,0.01,VWS V14.01,2013-07-12 10:41:00,
2013-07-12 06:46:00,67.0,65.5,29.88,NNW,331,2.0,2.0,95,0.00,,---,0.01,VWS V14.01,2013-07-12 10:46:00,
2013-07-12 06:51:00,66.9,65.4,29.88,NNW,345,0.0,2.0,95,0.00,,---,0.01,VWS V14.01,2013-07-12 10:51:00,
2013-07-12 06:56:00,66.9,65.4,29.88,NNE,20,0.0,2.0,95,0.00,,---,0.01,VWS V14.01,2013-07-12 10:56:00,
2013-07-12 07:01:00,66.9,65.4,29.88,NW,322,0.0,2.0,95,0.00,,---,0.01,VWS V14.01,2013-07-12 11:01:00,
2013-07-12 07:06:00,66.9,65.4,29.88,North,360,0.0,2.0,95,0.00,,---,0.01,VWS V14.01,2013-07-12 11:06:00,
2013-07-12 07:11:00,66.9,65.4,29.88,North,360,0.0,2.0,95,0.00,,---,0.01,VWS V14.01,2013-07-12 11:11:00,
2013-07-12 07:16:00,66.9,65.4,29.89,North,3,0.0,2.0,95,0.00,,---,0.01,VWS V14.01,2013-07-12 11:16:00,
2013-07-12 07:21:00,66.9,65.4,29.89,North,9,0.0,2.0,95,0.00,,---,0.01,VWS V14.01,2013-07-12 11:21:00,
2013-07-12 07:26:00,66.8,65.3,29.89,North,9,0.0,2.0,95,0.00,,---,0.01,VWS V14.01,2013-07-12 11:26:00,
2013-07-12 07:31:00,66.8,65.3,29.89,NW,308,1.0,2.0,95,0.00,,---,0.01,VWS V14.01,2013-07-12 11:31:00,
2013-07-12 07:36:00,66.8,65.3,29.90,NW,308,0.0,2.0,95,0.00,,---,0.01,VWS V14.01,2013-07-12 11:36:00,
2013-07-12 07:41:00,66.8,65.3,29.90,NW,319,1.0,2.0,95,0.00,,---,0.01,VWS V14.01,2013-07-12 11:41:00,
2013-07-12 07:46:00,66.8,65.3,29.90,WNW,284,0.0,2.0,95,0.00,,---,0.01,VWS V14.01,2013-07-12 11:46:00,
2013-07-12 07:51:00,66.8,65.3,29.90,WNW,290,1.0,2.0,95,0.00,,---,0.01,VWS V14.01,2013-07-12 11:51:00,
2013-07-12 07:56:00,66.9,65.7,29.90,WNW,287,2.0,2.0,96,0.00,,---,0.01,VWS V14.01,2013-07-12 11:56:00,
2013-07-12 08:01:00,67.0,65.8,29.90,WNW,287,1.0,3.0,96,0.00,,---,0.01,VWS V14.01,2013-07-12 12:01:00,
2013-07-12 08:06:00,67.0,65.8,29.90,NNW,329,3.0,4.0,96,0.00,,---,0.01,VWS V14.01,2013-07-12 12:06:00,
2013-07-12 08:11:00,67.1,65.9,29.90,NW,305,1.0,4.0,96,0.00,,---,0.01,VWS V14.01,2013-07-12 12:11:00,
2013-07-12 08:16:00,67.2,65.7,29.90,NNW,335,0.0,5.0,95,0.00,,---,0.01,VWS V14.01,2013-07-12 12:16:00,
2013-07-12 08:21:00,67.2,65.7,29.90,West,278,0.0,5.0,95,0.00,,---,0.01,VWS V14.01,2013-07-12 12:21:00,
2013-07-12 08:26:00,67.4,65.9,29.90,NW,304,0.0,5.0,95,0.00,,---,0.01,VWS V14.01,2013-07-12 12:26:00,
2013-07-12 08:31:00,67.4,65.9,29.91,WNW,296,1.0,5.0,95,0.00,,---,0.01,VWS V14.01,2013-07-12 12:31:00,
2013-07-12 08:36:00,67.5,66.0,29.91,NW,320,0.0,3.0,95,0.00,,---,0.01,VWS V14.01,2013-07-12 12:36:00,
2013-07-12 08:41:00,67.7,66.2,29.91,WNW,285,3.0,4.0,95,0.00,,---,0.01,VWS V14.01,2013-07-12 12:41:00,
2013-07-12 08:46:00,67.8,66.0,29.91,NNW,333,0.0,4.0,94,0.00,,---,0.01,VWS V14.01,2013-07-12 12:46:00,
2013-07-12 08:51:00,68.0,66.2,29.91,WNW,293,0.0,4.0,94,0.00,,---,0.01,VWS V14.01,2013-07-12 12:51:00,
2013-07-12 08:56:00,68.2,66.4,29.91,NNW,340,2.0,4.0,94,0.00,,---,0.01,VWS V14.01,2013-07-12 12:56:00,
2013-07-12 09:01:00,68.4,66.6,29.91,WNW,293,0.0,4.0,94,0.00,,---,0.01,VWS V14.01,2013-07-12 13:01:00,
2013-07-12 09:06:00,68.5,66.4,29.91,NW,313,0.0,2.0,93,0.00,,---,0.01,VWS V14.01,2013-07-12 13:06:00,
2013-07-12 09:11:00,68.5,66.1,29.92,North,354,0.0,3.0,92,0.00,,---,0.01,VWS V14.01,2013-07-12 13:11:00,
2013-07-12 09:16:00,68.6,66.2,29.91,North,9,0.0,3.0,92,0.00,,---,0.01,VWS V14.01,2013-07-12 13:16:00,
2013-07-12 09:21:00,68.8,66.4,29.91,NNW,327,1.0,3.0,92,0.00,,---,0.01,VWS V14.01,2013-07-12 13:21:00,
2013-07-12 09:26:00,68.9,66.5,29.91,NNW,340,0.0,3.0,92,0.00,,---,0.01,VWS V14.01,2013-07-12 13:26:00,
2013-07-12 09:31:00,69.0,66.6,29.91,North,350,1.0,3.0,92,0.00,,---,0.01,VWS V14.01,2013-07-12 13:31:00,
2013-07-12 09:36:00,69.1,66.7,29.91,NNE,27,2.0,3.0,92,0.00,,---,0.01,VWS V14.01,2013-07-12 13:36:00,
2013-07-12 09:41:00,69.1,66.4,29.91,North,11,1.0,3.0,91,0.00,,---,0.01,VWS V14.01,2013-07-12 13:41:00,
2013-07-12 09:46:00,69.1,66.4,29.92,NNW,340,1.0,4.0,91,0.00,,---,0.01,VWS V14.01,2013-07-12 13:46:00,
2013-07-12 09:51:00,69.0,66.3,29.92,NW,314,0.0,4.0,91,0.00,,---,0.01,VWS V14.01,2013-07-12 13:51:00,
2013-07-12 09:56:00,69.0,66.3,29.92,NNE,19,2.0,4.0,91,0.00,,---,0.01,VWS V14.01,2013-07-12 13:56:00,
2013-07-12 10:01:00,69.2,66.5,29.92,NNE,19,0.0,4.0,91,0.00,,---,0.01,VWS V14.01,2013-07-12 14:01:00,
2013-07-12 10:06:00,69.3,66.6,29.92,NNW,340,0.0,2.0,91,0.00,,---,0.01,VWS V14.01,2013-07-12 14:06:00,
2013-07-12 10:11:00,69.4,67.0,29.92,NNW,330,2.0,2.0,92,0.00,,---,0.01,VWS V14.01,2013-07-12 14:11:00,
2013-07-12 10:16:00,69.7,66.3,29.92,WNW,285,2.0,3.0,89,0.00,,---,0.01,VWS V14.01,2013-07-12 14:16:00,
2013-07-12 10:21:00,70.1,67.4,29.92,NNW,336,3.0,4.0,91,0.00,,---,0.01,VWS V14.01,2013-07-12 14:21:00,
2013-07-12 10:26:00,70.4,66.0,29.92,East,81,1.0,5.0,86,0.00,,---,0.01,VWS V14.01,2013-07-12 14:26:00,
2013-07-12 10:31:00,70.7,66.3,29.92,ENE,65,2.0,5.0,86,0.00,,---,0.01,VWS V14.01,2013-07-12 14:31:00,
2013-07-12 10:36:00,70.8,66.7,29.92,NNE,31,4.0,4.0,87,0.00,,---,0.01,VWS V14.01,2013-07-12 14:36:00,
2013-07-12 10:41:00,70.9,66.8,29.92,NNE,13,1.0,6.0,87,0.00,,---,0.01,VWS V14.01,2013-07-12 14:41:00,
2013-07-12 10:46:00,71.0,66.3,29.92,ENE,67,1.0,6.0,85,0.00,,---,0.01,VWS V14.01,2013-07-12 14:46:00,
2013-07-12 10:51:00,71.1,66.7,29.93,East,90,1.0,6.0,86,0.00,,---,0.01,VWS V14.01,2013-07-12 14:51:00,
2013-07-12 10:56:00,71.2,66.5,29.93,East,97,1.0,6.0,85,0.00,,---,0.01,VWS V14.01,2013-07-12 14:56:00,
2013-07-12 11:01:00,71.2,66.5,29.93,ENE,59,0.0,6.0,85,0.00,,---,0.01,VWS V14.01,2013-07-12 15:01:00,
2013-07-12 11:06:00,71.3,66.2,29.93,ENE,72,0.0,7.0,84,0.00,,---,0.01,VWS V14.01,2013-07-12 15:06:00,
2013-07-12 11:11:00,71.3,66.2,29.93,East,94,1.0,7.0,84,0.00,,---,0.01,VWS V14.01,2013-07-12 15:11:00,
2013-07-12 11:16:00,71.3,66.2,29.93,NE,36,0.0,7.0,84,0.00,,---,0.01,VWS V14.01,2013-07-12 15:16:00,
2013-07-12 11:21:00,71.5,66.8,29.93,NE,36,0.0,7.0,85,0.00,,---,0.01,VWS V14.01,2013-07-12 15:21:00,
2013-07-12 11:26:00,71.5,66.8,29.93,ENE,74,0.0,7.0,85,0.00,,---,0.01,VWS V14.01,2013-07-12 15:26:00,
2013-07-12 11:31:00,71.6,66.9,29.93,NE,48,1.0,7.0,85,0.00,,---,0.01,VWS V14.01,2013-07-12 15:31:00,
2013-07-12 11:36:00,71.5,66.1,29.93,East,86,1.0,2.0,83,0.00,,---,0.01,VWS V14.01,2013-07-12 15:36:00,
2013-07-12 11:41:00,71.4,66.3,29.93,ENE,66,1.0,4.0,84,0.00,,---,0.01,VWS V14.01,2013-07-12 15:41:00,
2013-07-12 11:46:00,71.2,66.5,29.94,East,79,0.0,4.0,85,0.00,,---,0.01,VWS V14.01,2013-07-12 15:46:00,
2013-07-12 11:51:00,71.0,66.3,29.94,East,88,0.0,4.0,85,0.00,,---,0.01,VWS V14.01,2013-07-12 15:51:00,
2013-07-12 11:56:00,70.7,66.3,29.94,ESE,112,1.0,6.0,86,0.00,,---,0.01,VWS V14.01,2013-07-12 15:56:00,
2013-07-12 12:01:00,70.3,65.6,29.94,ESE,105,2.0,6.0,85,0.00,,---,0.01,VWS V14.01,2013-07-12 16:01:00,
2013-07-12 12:06:00,70.0,66.0,29.94,East,95,1.0,4.0,87,0.00,,---,0.01,VWS V14.01,2013-07-12 16:06:00,
2013-07-12 12:11:00,69.7,65.3,29.94,East,100,1.0,5.0,86,0.00,,---,0.01,VWS V14.01,2013-07-12 16:11:00,
2013-07-12 12:16:00,69.6,65.6,29.94,SE,126,0.0,5.0,87,0.00,,---,0.01,VWS V14.01,2013-07-12 16:16:00,
2013-07-12 12:21:00,69.7,66.3,29.94,East,90,0.0,5.0,89,0.00,,---,0.01,VWS V14.01,2013-07-12 16:21:00,
2013-07-12 12:26:00,69.7,66.3,29.94,East,90,0.0,5.0,89,0.00,,---,0.01,VWS V14.01,2013-07-12 16:26:00,
2013-07-12 12:31:00,69.8,66.1,29.94,East,96,0.0,5.0,88,0.00,,---,0.01,VWS V14.01,2013-07-12 16:31:00,
2013-07-12 12:36:00,69.9,66.2,29.94,East,93,1.0,2.0,88,0.00,,---,0.01,VWS V14.01,2013-07-12 16:36:00,
2013-07-12 12:41:00,69.7,66.3,29.94,East,100,0.0,2.0,89,0.00,,---,0.01,VWS V14.01,2013-07-12 16:41:00,
2013-07-12 12:46:00,69.6,66.2,29.94,East,100,0.0,2.0,89,0.00,,---,0.01,VWS V14.01,2013-07-12 16:46:00,
2013-07-12 12:51:00,69.4,66.0,29.94,ESE,121,0.0,2.0,89,0.00,,---,0.01,VWS V14.01,2013-07-12 16:51:00,
2013-07-12 12:56:00,69.3,66.2,29.94,ESE,121,0.0,2.0,90,0.00,,---,0.01,VWS V14.01,2013-07-12 16:56:00,
2013-07-12 13:01:00,69.3,66.6,29.94,ESE,123,1.0,2.0,91,0.00,,---,0.01,VWS V14.01,2013-07-12 17:01:00,
2013-07-12 13:06:00,69.3,66.6,29.94,ESE,123,0.0,0.0,91,0.00,,---,0.01,VWS V14.01,2013-07-12 17:06:00,
2013-07-12 13:11:00,69.5,66.4,29.94,ESE,121,0.0,0.0,90,0.00,,---,0.01,VWS V14.01,2013-07-12 17:11:00,
2013-07-12 13:17:00,69.7,66.6,29.94,SE,125,0.0,1.0,90,0.00,,---,0.01,VWS V14.01,2013-07-12 17:17:00,
2013-07-12 13:22:00,70.1,66.7,29.94,SSE,161,0.0,1.0,89,0.00,,---,0.01,VWS V14.01,2013-07-12 17:22:00,
2013-07-12 13:27:00,70.4,66.7,29.94,SSE,160,0.0,1.0,88,0.00,,---,0.01,VWS V14.01,2013-07-12 17:27:00,
2013-07-12 13:32:00,70.6,66.9,29.94,ESE,104,0.0,2.0,88,0.00,,---,0.01,VWS V14.01,2013-07-12 17:32:00,
2013-07-12 13:37:00,70.6,66.9,29.94,NE,42,2.0,6.0,88,0.00,,---,0.01,VWS V14.01,2013-07-12 17:37:00,
2013-07-12 13:42:00,70.5,67.1,29.94,East,94,0.0,6.0,89,0.00,,---,0.01,VWS V14.01,2013-07-12 17:42:00,
2013-07-12 13:47:00,70.6,66.9,29.94,East,79,2.0,6.0,88,0.00,,---,0.01,VWS V14.01,2013-07-12 17:47:00,
2013-07-12 13:52:00,70.5,66.8,29.94,East,81,0.0,6.0,88,0.00,,---,0.01,VWS V14.01,2013-07-12 17:52:00,
2013-07-12 13:57:00,70.9,67.2,29.94,East,88,0.0,6.0,88,0.00,,---,0.01,VWS V14.01,2013-07-12 17:57:00,
2013-07-12 14:02:00,71.4,67.3,29.94,NNE,32,1.0,6.0,87,0.00,,---,0.01,VWS V14.01,2013-07-12 18:02:00,
2013-07-12 14:08:00,71.9,67.8,29.94,East,79,1.0,2.0,87,0.00,,---,0.01,VWS V14.01,2013-07-12 18:08:00,
2013-07-12 14:13:00,72.1,67.3,29.94,East,93,2.0,4.0,85,0.00,,---,0.01,VWS V14.01,2013-07-12 18:13:00,
2013-07-12 14:18:00,72.1,67.7,29.94,East,101,1.0,4.0,86,0.00,,---,0.01,VWS V14.01,2013-07-12 18:18:00,
2013-07-12 14:23:00,72.5,67.7,29.94,East,100,2.0,5.0,85,0.00,,---,0.01,VWS V14.01,2013-07-12 18:23:00,
2013-07-12 14:28:00,72.8,68.4,29.94,ESE,119,2.0,5.0,86,0.00,,---,0.01,VWS V14.01,2013-07-12 18:28:00,
2013-07-12 14:33:00,73.2,68.8,29.94,East,100,0.0,0.0,86,0.00,,---,0.01,VWS V14.01,2013-07-12 18:33:00,
2013-07-12 14:38:00,73.5,68.0,29.93,ESE,108,0.0,4.0,83,0.00,,---,0.01,VWS V14.01,2013-07-12 18:38:00,
2013-07-12 14:43:00,73.9,68.1,29.94,SE,127,4.0,4.0,82,0.00,,---,0.01,VWS V14.01,2013-07-12 18:43:00,
2013-07-12 14:48:00,74.3,68.4,29.94,NE,38,1.0,6.0,82,0.00,,---,0.01,VWS V14.01,2013-07-12 18:48:00,
2013-07-12 14:54:00,74.7,67.8,29.94,ESE,113,0.0,6.0,79,0.00,,---,0.01,VWS V14.01,2013-07-12 18:54:00,
2013-07-12 14:59:00,74.6,67.3,29.94,ESE,114,0.0,6.0,78,0.00,,---,0.01,VWS V14.01,2013-07-12 18:59:00,
2013-07-12 15:04:00,74.7,67.0,29.94,ESE,103,0.0,1.0,77,0.00,,---,0.01,VWS V14.01,2013-07-12 19:04:00,
2013-07-12 15:09:00,75.1,67.8,29.93,North,350,4.0,8.0,78,0.00,,---,0.01,VWS V14.01,2013-07-12 19:09:00,
2013-07-12 15:14:00,75.2,66.7,29.93,ENE,68,2.0,8.0,75,0.00,,---,0.01,VWS V14.01,2013-07-12 19:14:00,
2013-07-12 15:19:00,75.3,68.0,29.93,East,96,0.0,10.0,78,0.00,,---,0.01,VWS V14.01,2013-07-12 19:19:00,
2013-07-12 15:24:00,75.4,68.4,29.93,ENE,61,0.0,10.0,79,0.00,,---,0.01,VWS V14.01,2013-07-12 19:24:00,
2013-07-12 15:29:00,75.4,67.7,29.93,East,81,5.0,10.0,77,0.00,,---,0.01,VWS V14.01,2013-07-12 19:29:00,
2013-07-12 15:34:00,75.1,67.0,29.93,ENE,64,0.0,2.0,76,0.00,,---,0.01,VWS V14.01,2013-07-12 19:34:00,
2013-07-12 15:39:00,75.1,67.8,29.93,ENE,62,1.0,6.0,78,0.00,,---,0.01,VWS V14.01,2013-07-12 19:39:00,
2013-07-12 15:44:00,75.3,67.2,29.93,NNE,29,4.0,7.0,76,0.00,,---,0.01,VWS V14.01,2013-07-12 19:44:00,
2013-07-12 15:49:00,74.9,66.8,29.93,ESE,115,2.0,7.0,76,0.00,,---,0.01,VWS V14.01,2013-07-12 19:49:00,
2013-07-12 15:54:00,74.6,68.0,29.92,NE,53,2.0,7.0,80,0.00,,---,0.01,VWS V14.01,2013-07-12 19:54:00,
2013-07-12 15:59:00,75.0,68.1,29.92,NE,54,0.0,7.0,79,0.00,,---,0.01,VWS V14.01,2013-07-12 19:59:00,
2013-07-12 16:04:00,75.9,68.9,29.92,North,355,0.0,3.0,79,0.00,,---,0.01,VWS V14.01,2013-07-12 20:04:00,
2013-07-12 16:10:00,76.2,68.1,29.92,East,79,1.0,11.0,76,0.00,,---,0.01,VWS V14.01,2013-07-12 20:10:00,
2013-07-12 16:15:00,75.8,66.9,29.92,ESE,109,1.0,11.0,74,0.00,,---,0.01,VWS V14.01,2013-07-12 20:15:00,
2013-07-12 16:20:00,75.3,66.8,29.92,East,86,1.0,11.0,75,0.00,,---,0.01,VWS V14.01,2013-07-12 20:20:00,
2013-07-12 16:25:00,75.1,67.4,29.92,East,98,1.0,11.0,77,0.00,,---,0.01,VWS V14.01,2013-07-12 20:25:00,
2013-07-12 16:30:00,74.8,67.5,29.92,ENE,75,1.0,11.0,78,0.00,,---,0.01,VWS V14.01,2013-07-12 20:30:00,
2013-07-12 16:35:00,74.9,67.2,29.92,East,90,2.0,6.0,77,0.00,,---,0.01,VWS V14.01,2013-07-12 20:35:00,
2013-07-12 16:40:00,75.0,67.3,29.92,ESE,120,1.0,6.0,77,0.00,,---,0.01,VWS V14.01,2013-07-12 20:40:00,
2013-07-12 16:45:00,75.2,67.1,29.92,East,79,0.0,6.0,76,0.00,,---,0.01,VWS V14.01,2013-07-12 20:45:00,
2013-07-12 16:50:00,75.5,68.2,29.92,ESE,107,0.0,6.0,78,0.00,,---,0.01,VWS V14.01,2013-07-12 20:50:00,
2013-07-12 16:55:00,75.7,68.4,29.92,East,101,1.0,6.0,78,0.00,,---,0.01,VWS V14.01,2013-07-12 20:55:00,
2013-07-12 17:00:00,75.6,68.3,29.92,ESE,103,0.0,6.0,78,0.00,,---,0.01,VWS V14.01,2013-07-12 21:00:00,
2013-07-12 17:05:00,74.9,67.2,29.92,East,87,0.0,4.0,77,0.00,,---,0.01,VWS V14.01,2013-07-12 21:05:00,
2013-07-12 17:10:00,74.3,67.4,29.93,ENE,72,3.0,5.0,79,0.00,,---,0.01,VWS V14.01,2013-07-12 21:10:00,
2013-07-12 17:15:00,73.6,67.4,29.93,ESE,112,1.0,5.0,81,0.00,,---,0.01,VWS V14.01,2013-07-12 21:15:00,
2013-07-12 17:20:00,73.3,66.8,29.93,North,6,1.0,5.0,80,0.00,,---,0.01,VWS V14.01,2013-07-12 21:20:00,
2013-07-12 17:25:00,73.2,67.4,29.94,SE,125,1.0,5.0,82,0.00,,---,0.01,VWS V14.01,2013-07-12 21:25:00,
2013-07-12 17:30:00,73.1,67.6,29.94,East,88,1.0,5.0,83,0.00,,---,0.01,VWS V14.01,2013-07-12 21:30:00,
2013-07-12 17:35:00,73.1,67.6,29.94,SE,125,1.0,2.0,83,0.00,,---,0.01,VWS V14.01,2013-07-12 21:35:00,
2013-07-12 17:41:00,73.1,67.6,29.94,NE,49,1.0,4.0,83,0.00,,---,0.01,VWS V14.01,2013-07-12 21:41:00,
2013-07-12 17:46:00,73.2,67.7,29.93,East,82,1.0,4.0,83,0.00,,---,0.01,VWS V14.01,2013-07-12 21:46:00,
2013-07-12 17:51:00,73.4,68.3,29.93,East,93,0.0,5.0,84,0.00,,---,0.01,VWS V14.01,2013-07-12 21:51:00,
2013-07-12 17:56:00,73.5,67.7,29.93,East,92,0.0,5.0,82,0.00,,---,0.01,VWS V14.01,2013-07-12 21:56:00,
2013-07-12 18:02:00,73.5,67.0,29.93,East,100,0.0,5.0,80,0.00,,---,0.01,VWS V14.01,2013-07-12 22:02:00,
2013-07-12 18:07:00,73.6,67.8,29.93,ESE,110,0.0,2.0,82,0.00,,---,0.01,VWS V14.01,2013-07-12 22:07:00,
2013-07-12 18:12:00,73.5,67.3,29.93,SE,130,0.0,2.0,81,0.00,,---,0.01,VWS V14.01,2013-07-12 22:12:00,
2013-07-12 18:17:00,73.4,67.9,29.93,NE,55,0.0,4.0,83,0.00,,---,0.01,VWS V14.01,2013-07-12 22:17:00,
2013-07-12 18:22:00,73.4,67.6,29.94,NE,53,1.0,4.0,82,0.00,,---,0.01,VWS V14.01,2013-07-12 22:22:00,
2013-07-12 18:27:00,73.3,67.5,29.94,East,97,1.0,4.0,82,0.00,,---,0.01,VWS V14.01,2013-07-12 22:27:00,
2013-07-12 18:32:00,73.3,67.1,29.94,East,81,2.0,4.0,81,0.00,,---,0.01,VWS V14.01,2013-07-12 22:32:00,
2013-07-12 18:37:00,73.2,67.4,29.94,NE,40,3.0,3.0,82,0.00,,---,0.01,VWS V14.01,2013-07-12 22:37:00,
2013-07-12 18:42:00,73.1,66.2,29.94,East,87,0.0,6.0,79,0.00,,---,0.01,VWS V14.01,2013-07-12 22:42:00,
2013-07-12 18:47:00,72.9,66.4,29.94,SSE,148,0.0,6.0,80,0.00,,---,0.01,VWS V14.01,2013-07-12 22:47:00,
2013-07-12 18:52:00,72.6,66.1,29.94,ESE,111,0.0,6.0,80,0.00,,---,0.01,VWS V14.01,2013-07-12 22:52:00,
2013-07-12 18:57:00,72.3,65.8,29.94,ESE,111,2.0,6.0,80,0.00,,---,0.01,VWS V14.01,2013-07-12 22:57:00,
2013-07-12 19:02:00,72.0,65.5,29.94,East,91,0.0,6.0,80,0.00,,---,0.01,VWS V14.01,2013-07-12 23:02:00,
2013-07-12 19:07:00,71.8,65.7,29.94,NE,54,0.0,5.0,81,0.00,,---,0.01,VWS V14.01,2013-07-12 23:07:00,
2013-07-12 19:12:00,71.6,65.8,29.94,ESE,105,1.0,5.0,82,0.00,,---,0.01,VWS V14.01,2013-07-12 23:12:00,
2013-07-12 19:17:00,71.5,65.7,29.95,East,90,0.0,5.0,82,0.00,,---,0.01,VWS V14.01,2013-07-12 23:17:00,
2013-07-12 19:22:00,71.5,65.7,29.95,ENE,71,0.0,5.0,82,0.00,,---,0.01,VWS V14.01,2013-07-12 23:22:00,
2013-07-12 19:27:00,71.4,66.3,29.95,ENE,71,0.0,5.0,84,0.00,,---,0.01,VWS V14.01,2013-07-12 23:27:00,
2013-07-12 19:33:00,71.3,65.9,29.95,East,81,0.0,5.0,83,0.00,,---,0.01,VWS V14.01,2013-07-12 23:33:00,
2013-07-12 19:38:00,71.1,66.0,29.95,East,81,0.0,0.0,84,0.00,,---,0.01,VWS V14.01,2013-07-12 23:38:00,
2013-07-12 19:43:00,71.0,66.3,29.95,SE,131,0.0,2.0,85,0.00,,---,0.01,VWS V14.01,2013-07-12 23:43:00,
2013-07-12 19:48:00,70.9,66.2,29.95,ESE,108,0.0,5.0,85,0.00,,---,0.01,VWS V14.01,2013-07-12 23:48:00,
2013-07-12 19:53:00,70.7,66.3,29.95,East,100,0.0,5.0,86,0.00,,---,0.01,VWS V14.01,2013-07-12 23:53:00,
2013-07-12 19:58:00,70.6,66.2,29.95,East,91,0.0,5.0,86,0.00,,---,0.01,VWS V14.01,2013-07-12 23:58:00,
2013-07-12 20:03:00,70.4,66.0,29.95,East,91,2.0,2.0,86,0.00,,---,0.01,VWS V14.01,2013-07-13 00:03:00,
2013-07-12 20:09:00,70.3,66.2,29.96,ESE,108,0.0,2.0,87,0.00,,---,0.01,VWS V14.01,2013-07-13 00:09:00,
2013-07-12 20:14:00,70.1,66.1,29.96,East,81,1.0,2.0,87,0.00,,---,0.01,VWS V14.01,2013-07-13 00:14:00,
2013-07-12 20:19:00,70.0,66.0,29.96,East,86,0.0,2.0,87,0.00,,---,0.01,VWS V14.01,2013-07-13 00:19:00,
2013-07-12 20:24:00,69.9,66.2,29.97,East,98,0.0,2.0,88,0.00,,---,0.01,VWS V14.01,2013-07-13 00:24:00,
2013-07-12 20:29:00,69.8,66.1,29.97,East,87,0.0,2.0,88,0.00,,---,0.01,VWS V14.01,2013-07-13 00:29:00,
2013-07-12 20:34:00,69.7,66.3,29.97,SE,144,1.0,4.0,89,0.00,,---,0.01,VWS V14.01,2013-07-13 00:34:00,
2013-07-12 20:39:00,69.6,66.2,29.97,East,95,0.0,4.0,89,0.00,,---,0.01,VWS V14.01,2013-07-13 00:39:00,
2013-07-12 20:44:00,69.5,66.1,29.97,East,98,1.0,4.0,89,0.00,,---,0.01,VWS V14.01,2013-07-13 00:44:00,
2013-07-12 20:49:00,69.4,65.7,29.97,East,94,1.0,4.0,88,0.00,,---,0.01,VWS V14.01,2013-07-13 00:49:00,
2013-07-12 20:54:00,69.3,65.6,29.96,ESE,108,2.0,4.0,88,0.00,,---,0.01,VWS V14.01,2013-07-13 00:54:00,
2013-07-12 20:59:00,69.2,65.8,29.96,ESE,103,1.0,4.0,89,0.00,,---,0.01,VWS V14.01,2013-07-13 00:59:00,
2013-07-12 21:04:00,69.0,65.6,29.97,East,83,0.0,1.0,89,0.00,,---,0.01,VWS V14.01,2013-07-13 01:04:00,
2013-07-12 21:10:00,68.9,65.5,29.97,East,87,0.0,1.0,89,0.00,,---,0.01,VWS V14.01,2013-07-13 01:10:00,
2013-07-12 21:14:00,68.8,65.4,29.97,East,98,1.0,2.0,89,0.00,,---,0.01,VWS V14.01,2013-07-13 01:14:00,
2013-07-12 21:20:00,68.8,65.4,29.98,East,100,1.0,2.0,89,0.00,,---,0.01,VWS V14.01,2013-07-13 01:20:00,
2013-07-12 21:25:00,68.6,65.2,29.98,ESE,104,0.0,2.0,89,0.00,,---,0.01,VWS V14.01,2013-07-13 01:25:00,
2013-07-12 21:30:00,68.6,65.6,29.98,ESE,103,0.0,2.0,90,0.00,,---,0.01,VWS V14.01,2013-07-13 01:30:00,
2013-07-12 21:35:00,68.5,65.5,29.98,East,99,0.0,0.0,90,0.00,,---,0.01,VWS V14.01,2013-07-13 01:35:00,
2013-07-12 21:40:00,68.4,65.7,29.98,East,99,0.0,1.0,91,0.00,,---,0.01,VWS V14.01,2013-07-13 01:40:00,
2013-07-12 21:45:00,68.3,65.3,29.99,SE,126,0.0,1.0,90,0.00,,---,0.01,VWS V14.01,2013-07-13 01:45:00,
2013-07-12 21:50:00,68.3,65.6,29.99,SE,126,0.0,1.0,91,0.00,,---,0.01,VWS V14.01,2013-07-13 01:50:00,
2013-07-12 21:55:00,68.3,65.6,30.00,SE,126,0.0,1.0,91,0.00,,---,0.01,VWS V14.01,2013-07-13 01:55:00,
2013-07-12 22:00:00,68.3,65.6,30.00,SE,126,0.0,1.0,91,0.00,,---,0.01,VWS V14.01,2013-07-13 02:00:00,
2013-07-12 22:05:00,68.3,65.9,30.00,SE,126,0.0,0.0,92,0.00,,---,0.01,VWS V14.01,2013-07-13 02:05:00,
2013-07-12 22:10:00,68.2,65.8,30.00,SE,126,0.0,0.0,92,0.00,,---,0.01,VWS V14.01,2013-07-13 02:10:00,
2013-07-12 22:16:00,68.2,65.8,30.00,ESE,110,0.0,1.0,92,0.00,,---,0.01,VWS V14.01,2013-07-13 02:16:00,
2013-07-12 22:21:00,68.1,65.7,30.00,ESE,110,0.0,1.0,92,0.00,,---,0.01,VWS V14.01,2013-07-13 02:21:00,
2013-07-12 22:26:00,68.1,65.7,30.00,NNE,31,0.0,2.0,92,0.00,,---,0.01,VWS V14.01,2013-07-13 02:26:00,
2013-07-12 22:31:00,68.1,65.7,30.00,NNW,327,0.0,2.0,92,0.00,,---,0.01,VWS V14.01,2013-07-13 02:31:00,
2013-07-12 22:36:00,68.1,65.7,30.00,NNW,327,0.0,0.0,92,0.00,,---,0.01,VWS V14.01,2013-07-13 02:36:00,
2013-07-12 22:41:00,68.1,66.0,30.00,NNW,327,0.0,0.0,93,0.00,,---,0.01,VWS V14.01,2013-07-13 02:41:00,
2013-07-12 22:46:00,68.0,65.9,30.00,NNW,327,0.0,0.0,93,0.00,,---,0.01,VWS V14.01,2013-07-13 02:46:00,
2013-07-12 22:51:00,68.0,65.9,30.00,North,356,0.0,0.0,93,0.00,,---,0.01,VWS V14.01,2013-07-13 02:51:00,
2013-07-12 22:56:00,68.0,65.9,30.00,NE,51,0.0,1.0,93,0.00,,---,0.01,VWS V14.01,2013-07-13 02:56:00,
2013-07-12 23:01:00,67.9,65.8,30.00,NE,52,1.0,1.0,93,0.00,,---,0.01,VWS V14.01,2013-07-13 03:01:00,
2013-07-12 23:06:00,67.9,65.8,30.01,ENE,60,0.0,2.0,93,0.00,,---,0.01,VWS V14.01,2013-07-13 03:06:00,
2013-07-12 23:11:00,67.9,65.8,30.01,ENE,60,0.0,2.0,93,0.00,,---,0.01,VWS V14.01,2013-07-13 03:11:00,
2013-07-12 23:16:00,67.9,65.8,30.01,NE,51,0.0,2.0,93,0.00,,---,0.01,VWS V14.01,2013-07-13 03:16:00,
2013-07-12 23:22:00,67.9,65.5,30.01,NE,51,0.0,2.0,92,0.00,,---,0.01,VWS V14.01,2013-07-13 03:22:00,
2013-07-12 23:27:00,67.9,65.8,30.01,NE,42,0.0,2.0,93,0.00,,---,0.01,VWS V14.01,2013-07-13 03:27:00,
2013-07-12 23:32:00,67.9,65.8,30.01,NE,42,0.0,2.0,93,0.00,,---,0.01,VWS V14.01,2013-07-13 03:32:00,
2013-07-12 23:37:00,67.9,65.8,30.00,NE,53,0.0,2.0,93,0.00,,---,0.01,VWS V14.01,2013-07-13 03:37:00,
2013-07-12 23:42:00,67.9,65.8,30.00,NE,53,0.0,2.0,93,0.00,,---,0.01,VWS V14.01,2013-07-13 03:42:00,
2013-07-12 23:47:00,67.9,65.8,30.00,NE,53,0.0,2.0,93,0.00,,---,0.01,VWS V14.01,2013-07-13 03:47:00,
2013-07-12 23:52:00,67.8,65.7,30.01,NNE,17,0.0,2.0,93,0.00,,---,0.01,VWS V14.01,2013-07-13 03:52:00,
2013-07-12 23:57:00,67.8,65.7,30.01,North,357,0.0,2.0,93,0.00,,---,0.01,VWS V14.01,2013-07-13 03:57:00,